createdAt,value
2023-03-11T00:00:44.350Z,0.70
2023-03-11T00:03:14.125Z,0.70
2023-03-11T00:05:43.354Z,0.70
2023-03-11T00:08:14.401Z,0.70
2023-03-11T00:10:43.421Z,0.70
2023-03-11T00:13:12.362Z,0.80
2023-03-11T00:15:40.352Z,0.80
2023-03-11T00:18:07.606Z,0.70
2023-03-11T00:20:37.416Z,0.70
2023-03-11T00:23:05.772Z,0.70
2023-03-11T00:25:34.323Z,0.70
2023-03-11T00:28:01.774Z,0.70
2023-03-11T00:30:29.304Z,0.70
2023-03-11T00:32:58.145Z,0.70
2023-03-11T00:35:28.114Z,0.70
2023-03-11T00:37:57.416Z,0.80
2023-03-11T00:40:25.904Z,0.70
2023-03-11T00:42:53.014Z,0.70
2023-03-11T00:45:20.297Z,0.70
2023-03-11T00:47:47.039Z,0.70
2023-03-11T00:50:22.498Z,0.70
2023-03-11T00:52:50.075Z,0.70
2023-03-11T00:55:20.705Z,0.70
2023-03-11T00:57:47.498Z,0.70
2023-03-11T01:00:17.361Z,0.80
2023-03-11T01:02:44.145Z,0.70
2023-03-11T01:05:11.724Z,0.70
2023-03-11T01:07:38.635Z,0.70
2023-03-11T01:10:07.867Z,0.70
2023-03-11T01:12:34.772Z,0.70
2023-03-11T01:15:02.597Z,0.70
2023-03-11T01:17:29.474Z,0.70
2023-03-11T01:19:56.337Z,0.70
2023-03-11T01:22:23.191Z,0.70
2023-03-11T01:24:50.023Z,0.80
2023-03-11T01:27:17.004Z,0.70
2023-03-11T01:29:43.646Z,0.70
2023-03-11T01:32:11.385Z,0.70
2023-03-11T01:34:38.174Z,0.70
2023-03-11T01:37:04.924Z,0.80
2023-03-11T01:39:31.593Z,0.70
2023-03-11T01:41:58.326Z,0.70
2023-03-11T01:44:25.101Z,0.70
2023-03-11T01:46:52.313Z,0.70
2023-03-11T01:49:22.840Z,0.70
2023-03-11T01:51:54.118Z,0.70
2023-03-11T01:54:25.747Z,0.70
2023-03-11T01:56:53.310Z,0.70
2023-03-11T01:59:23.986Z,0.70
2023-03-11T02:02:14.700Z,0.70
2023-03-11T02:04:42.806Z,0.70
2023-03-11T02:07:10.777Z,0.80
2023-03-11T02:09:37.675Z,0.70
2023-03-11T02:12:07.607Z,0.80
2023-03-11T02:14:35.806Z,0.80
2023-03-11T02:17:04.057Z,0.80
2023-03-11T02:19:53.757Z,0.70
2023-03-11T02:22:21.122Z,0.70
2023-03-11T02:25:04.481Z,0.70
2023-03-11T02:27:34.601Z,0.70
2023-03-11T02:30:04.665Z,0.70
2023-03-11T02:32:35.075Z,0.70
2023-03-11T02:35:02.035Z,0.70
2023-03-11T02:37:28.745Z,0.70
2023-03-11T02:40:35.218Z,0.70
2023-03-11T02:43:09.479Z,0.70
2023-03-11T02:45:40.002Z,0.70
2023-03-11T02:48:10.239Z,0.60
2023-03-11T02:50:37.291Z,0.60
2023-03-11T02:53:06.234Z,0.60
2023-03-11T02:55:32.966Z,0.70
2023-03-11T02:58:00.301Z,0.60
2023-03-11T03:00:27.786Z,0.60
2023-03-11T03:03:02.429Z,0.50
2023-03-11T03:05:29.744Z,0.50
2023-03-11T03:07:58.268Z,0.40
2023-03-11T03:10:24.982Z,0.30
2023-03-11T03:12:51.755Z,0.30
2023-03-11T03:15:18.615Z,0.20
2023-03-11T03:17:46.439Z,0.30
2023-03-11T03:20:14.546Z,0.30
2023-03-11T03:22:46.416Z,0.30
2023-03-11T03:25:16.528Z,0.30
2023-03-11T03:27:43.272Z,0.30
2023-03-11T03:30:11.112Z,0.30
2023-03-11T03:32:39.263Z,0.30
2023-03-11T03:35:10.170Z,0.30
2023-03-11T03:37:53.391Z,0.30
2023-03-11T03:40:21.579Z,0.40
2023-03-11T03:42:48.931Z,0.40
2023-03-11T03:45:16.197Z,0.40
2023-03-11T03:47:42.985Z,0.40
2023-03-11T03:50:11.704Z,0.50
2023-03-11T03:52:40.720Z,0.50
2023-03-11T03:55:08.358Z,0.50
2023-03-11T03:57:35.022Z,0.40
2023-03-11T04:00:01.814Z,0.40
2023-03-11T04:02:28.789Z,0.40
2023-03-11T04:04:56.642Z,0.40
2023-03-11T04:07:23.398Z,0.30
2023-03-11T04:09:50.083Z,0.40
2023-03-11T04:12:17.572Z,0.30
2023-03-11T04:14:46.172Z,0.30
2023-03-11T04:17:14.355Z,0.30
2023-03-11T04:19:41.200Z,0.30
2023-03-11T04:22:09.697Z,0.30
2023-03-11T04:24:36.423Z,0.30
2023-03-11T04:27:03.579Z,0.30
2023-03-11T04:29:32.441Z,0.20
2023-03-11T04:31:59.207Z,0.20
2023-03-11T04:34:25.934Z,0.20
2023-03-11T04:36:53.806Z,0.20
2023-03-11T04:39:23.541Z,0.10
2023-03-11T04:41:51.051Z,0.00
2023-03-11T04:44:21.887Z,0.00
2023-03-11T04:46:50.218Z,-0.10
2023-03-11T04:49:17.063Z,-0.10
2023-03-11T04:51:44.313Z,-0.10
2023-03-11T04:54:12.908Z,-0.20
2023-03-11T04:56:39.706Z,-0.20
2023-03-11T04:59:07.068Z,-0.30
2023-03-11T05:01:35.802Z,-0.40
2023-03-11T05:04:04.651Z,-0.40
2023-03-11T05:06:31.656Z,-0.40
2023-03-11T05:08:59.780Z,-0.40
2023-03-11T05:11:27.438Z,-0.40
2023-03-11T05:13:54.130Z,-0.40
2023-03-11T05:16:22.090Z,-0.40
2023-03-11T05:18:48.899Z,-0.50
2023-03-11T05:21:16.361Z,-0.50
2023-03-11T05:23:45.097Z,-0.50
2023-03-11T05:26:13.570Z,-0.50
2023-03-11T05:28:42.967Z,-0.60
2023-03-11T05:31:10.714Z,-0.60
2023-03-11T05:33:38.803Z,-0.60
2023-03-11T05:36:09.973Z,-0.60
2023-03-11T05:38:39.606Z,-0.70
2023-03-11T05:41:06.834Z,-0.60
2023-03-11T05:43:34.481Z,-0.60
2023-03-11T05:46:01.263Z,-0.60
2023-03-11T05:48:28.027Z,-0.60
2023-03-11T05:50:54.761Z,-0.50
2023-03-11T05:53:22.521Z,-0.50
2023-03-11T05:55:59.524Z,-0.50
2023-03-11T05:58:29.124Z,-0.40
2023-03-11T06:00:56.943Z,-0.40
2023-03-11T06:03:23.720Z,-0.40
2023-03-11T06:05:50.981Z,-0.40
2023-03-11T06:08:19.399Z,-0.30
2023-03-11T06:10:48.563Z,-0.30
2023-03-11T06:13:16.943Z,-0.30
2023-03-11T06:15:49.593Z,-0.30
2023-03-11T06:18:16.443Z,-0.30
2023-03-11T06:20:43.469Z,-0.20
2023-03-11T06:23:10.919Z,-0.30
2023-03-11T06:25:37.798Z,-0.20
2023-03-11T06:28:05.177Z,-0.20
2023-03-11T06:30:32.331Z,-0.20
2023-03-11T06:33:05.590Z,0.00
2023-03-11T06:35:32.689Z,-0.20
2023-03-11T06:37:59.400Z,-0.20
2023-03-11T06:40:26.144Z,-0.20
2023-03-11T06:42:52.933Z,-0.10
2023-03-11T06:45:22.334Z,-0.10
2023-03-11T06:47:50.490Z,-0.10
2023-03-11T06:50:17.691Z,-0.10
2023-03-11T06:52:44.402Z,-0.10
2023-03-11T06:55:11.147Z,-0.10
2023-03-11T06:57:37.860Z,0.00
2023-03-11T07:00:12.441Z,0.00
2023-03-11T07:02:41.588Z,0.00
2023-03-11T07:05:09.081Z,0.00
2023-03-11T07:07:35.923Z,0.10
2023-03-11T07:10:04.287Z,0.20
2023-03-11T07:12:31.045Z,0.10
2023-03-11T07:14:58.842Z,0.20
2023-03-11T07:17:26.895Z,0.20
2023-03-11T07:19:54.073Z,0.20
2023-03-11T07:22:20.765Z,0.20
2023-03-11T07:24:48.782Z,0.20
2023-03-11T07:27:16.048Z,0.30
2023-03-11T07:29:42.717Z,0.40
2023-03-11T07:32:09.830Z,0.60
2023-03-11T07:34:36.658Z,0.60
2023-03-11T07:37:03.996Z,0.60
2023-03-11T07:39:30.724Z,0.50
2023-03-11T07:41:57.391Z,0.50
2023-03-11T07:44:33.376Z,0.50
2023-03-11T07:47:03.575Z,0.80
2023-03-11T07:49:30.460Z,1.00
2023-03-11T07:51:57.164Z,1.70
2023-03-11T07:54:23.915Z,1.60
2023-03-11T07:56:50.631Z,1.50
2023-03-11T07:59:17.448Z,2.10
2023-03-11T08:01:47.158Z,2.70
2023-03-11T08:04:16.888Z,3.30
2023-03-11T08:06:45.946Z,3.80
2023-03-11T08:09:13.347Z,3.80
2023-03-11T08:11:40.323Z,3.80
2023-03-11T08:14:07.599Z,3.70
2023-03-11T08:16:34.582Z,4.00
2023-03-11T08:19:01.517Z,4.60
2023-03-11T08:21:31.808Z,4.90
2023-03-11T08:24:00.845Z,5.10
2023-03-11T08:26:28.235Z,5.50
2023-03-11T08:28:56.271Z,5.50
2023-03-11T08:31:26.733Z,5.10
2023-03-11T08:33:57.573Z,5.20
2023-03-11T08:36:24.514Z,5.60
2023-03-11T08:38:51.233Z,5.80
2023-03-11T08:41:18.091Z,5.80
2023-03-11T08:43:44.883Z,5.80
2023-03-11T08:46:22.500Z,6.40
2023-03-11T08:48:49.298Z,6.20
2023-03-11T08:51:16.775Z,6.20
2023-03-11T08:53:43.451Z,6.50
2023-03-11T08:56:10.226Z,7.20
2023-03-11T08:58:37.132Z,7.40
2023-03-11T09:01:04.607Z,7.60
2023-03-11T09:03:32.756Z,7.30
2023-03-11T09:06:01.732Z,7.10
2023-03-11T09:08:29.047Z,6.90
2023-03-11T09:10:55.839Z,7.00
2023-03-11T09:13:22.669Z,7.30
2023-03-11T09:15:50.875Z,7.00
2023-03-11T09:18:18.389Z,7.00
2023-03-11T09:20:45.879Z,6.50
2023-03-11T09:23:15.871Z,6.00
2023-03-11T09:25:42.995Z,5.80
2023-03-11T09:28:09.892Z,6.00
2023-03-11T09:30:36.600Z,5.80
2023-03-11T09:33:03.412Z,5.90
2023-03-11T09:35:30.190Z,5.70
2023-03-11T09:37:57.393Z,5.70
2023-03-11T09:40:27.108Z,6.30
2023-03-11T09:43:20.975Z,6.20
2023-03-11T09:45:59.624Z,6.20
2023-03-11T09:48:39.392Z,6.60
2023-03-11T09:51:28.037Z,7.10
2023-03-11T09:54:06.035Z,7.00
2023-03-11T09:56:35.963Z,6.50
2023-03-11T09:59:07.852Z,6.20
2023-03-11T10:01:39.721Z,6.60
2023-03-11T10:04:38.212Z,7.10
2023-03-11T10:07:13.503Z,7.70
2023-03-11T10:09:47.997Z,8.00
2023-03-11T10:12:30.573Z,8.20
2023-03-11T10:15:23.410Z,7.90
2023-03-11T10:18:10.196Z,7.70
2023-03-11T10:20:48.978Z,8.00
2023-03-11T10:23:27.233Z,7.40
2023-03-11T10:26:07.988Z,7.70
2023-03-11T10:28:45.618Z,7.80
2023-03-11T10:31:55.648Z,7.80
2023-03-11T10:34:22.358Z,7.90
2023-03-11T10:37:19.842Z,8.20
2023-03-11T10:39:50.277Z,8.40
2023-03-11T10:42:24.994Z,8.00
2023-03-11T10:44:52.593Z,7.60
2023-03-11T10:47:21.597Z,7.30
2023-03-11T10:49:48.672Z,7.20
2023-03-11T10:52:15.599Z,7.00
2023-03-11T10:55:00.465Z,7.00
2023-03-11T10:57:35.899Z,7.60
2023-03-11T11:00:12.579Z,7.60
2023-03-11T11:02:49.275Z,7.20
2023-03-11T11:05:20.036Z,7.30
2023-03-11T11:08:03.983Z,7.30
2023-03-11T11:10:35.680Z,7.40
2023-03-11T11:13:16.621Z,7.30
2023-03-11T11:15:54.770Z,6.60
2023-03-11T11:18:42.398Z,6.70
2023-03-11T11:21:27.753Z,7.20
2023-03-11T11:24:12.342Z,7.20
2023-03-11T11:26:39.517Z,6.70
2023-03-11T11:29:10.719Z,6.90
2023-03-11T11:31:39.379Z,7.30
2023-03-11T11:34:32.327Z,7.20
2023-03-11T11:37:02.292Z,7.00
2023-03-11T11:39:33.437Z,7.00
2023-03-11T11:42:01.550Z,6.60
2023-03-11T11:44:34.999Z,6.50
2023-03-11T11:47:12.234Z,6.90
2023-03-11T11:49:50.198Z,6.60
2023-03-11T11:52:23.853Z,6.70
2023-03-11T11:54:56.002Z,6.90
2023-03-11T11:57:23.179Z,6.60
2023-03-11T11:59:50.354Z,6.70
2023-03-11T12:02:18.295Z,7.30
2023-03-11T12:04:47.707Z,7.30
2023-03-11T12:08:04.785Z,7.30
2023-03-11T12:10:41.519Z,7.50
2023-03-11T12:13:49.444Z,7.60
2023-03-11T12:16:43.517Z,7.60
2023-03-11T12:19:10.481Z,7.80
2023-03-11T12:22:09.038Z,7.80
2023-03-11T12:24:44.695Z,8.10
2023-03-11T12:27:25.011Z,8.40
2023-03-11T12:30:11.286Z,7.80
2023-03-11T12:32:44.182Z,7.60
2023-03-11T12:35:50.959Z,7.90
2023-03-11T12:38:29.346Z,8.00
2023-03-11T12:41:05.337Z,8.00
2023-03-11T12:43:34.459Z,7.90
2023-03-11T12:46:02.695Z,8.10
2023-03-11T12:48:29.431Z,8.50
2023-03-11T12:50:57.488Z,8.90
2023-03-11T12:53:43.942Z,8.50
2023-03-11T12:56:21.539Z,8.60
2023-03-11T12:59:11.070Z,8.30
2023-03-11T13:01:56.414Z,8.20
2023-03-11T13:04:42.912Z,9.60
2023-03-11T13:07:31.290Z,10.50
2023-03-11T13:10:07.157Z,10.20
2023-03-11T13:12:44.310Z,9.30
2023-03-11T13:15:20.236Z,8.50
2023-03-11T13:18:17.990Z,8.30
2023-03-11T13:20:49.187Z,9.00
2023-03-11T13:23:26.062Z,9.90
2023-03-11T13:25:55.888Z,10.60
2023-03-11T13:28:39.978Z,10.60
2023-03-11T13:31:39.072Z,10.90
2023-03-11T13:34:22.039Z,11.60
2023-03-11T13:36:57.332Z,11.20
2023-03-11T13:39:45.756Z,11.20
2023-03-11T13:42:24.713Z,11.10
2023-03-11T13:47:35.400Z,12.00
2023-03-11T13:50:16.947Z,10.90
2023-03-11T13:52:53.558Z,10.20
2023-03-11T13:55:23.622Z,10.20
2023-03-11T13:57:56.471Z,9.30
2023-03-11T14:00:28.823Z,9.70
2023-03-11T14:03:04.838Z,9.40
2023-03-11T14:05:33.421Z,9.30
2023-03-11T14:08:21.450Z,9.20
2023-03-11T14:11:01.821Z,8.90
2023-03-11T14:13:33.683Z,8.50
2023-03-11T14:16:20.838Z,8.70
2023-03-11T14:19:08.910Z,9.50
2023-03-11T14:21:35.732Z,10.50
2023-03-11T14:24:03.225Z,10.60
2023-03-11T14:26:35.333Z,10.30
2023-03-11T14:29:07.623Z,9.70
2023-03-11T14:31:40.254Z,8.90
2023-03-11T14:34:21.432Z,8.10
2023-03-11T14:36:55.282Z,7.90
2023-03-11T14:39:30.657Z,8.00
2023-03-11T14:42:20.722Z,8.10
2023-03-11T14:44:56.370Z,8.40
2023-03-11T14:47:36.084Z,8.50
2023-03-11T14:50:06.906Z,8.90
2023-03-11T14:52:41.575Z,8.80
2023-03-11T14:55:15.847Z,8.70
2023-03-11T14:57:47.726Z,9.20
2023-03-11T15:00:41.044Z,9.90
2023-03-11T15:03:17.726Z,10.50
2023-03-11T15:06:19.629Z,10.50
2023-03-11T15:08:52.674Z,8.20
2023-03-11T15:11:28.430Z,7.20
2023-03-11T15:14:16.860Z,7.20
2023-03-11T15:16:44.671Z,8.20
2023-03-11T15:19:23.727Z,8.80
2023-03-11T15:21:54.422Z,8.90
2023-03-11T15:24:33.294Z,8.80
2023-03-11T15:27:06.854Z,9.40
2023-03-11T15:29:35.700Z,9.40
2023-03-11T15:32:31.563Z,9.70
2023-03-11T15:35:25.721Z,9.60
2023-03-11T15:38:12.500Z,9.00
2023-03-11T15:40:45.591Z,9.30
2023-03-11T15:43:15.635Z,9.30
2023-03-11T15:45:43.727Z,8.80
2023-03-11T15:48:12.707Z,9.00
2023-03-11T15:50:54.811Z,9.10
2023-03-11T15:53:23.257Z,9.20
2023-03-11T15:55:50.639Z,9.30
2023-03-11T15:58:19.376Z,9.10
2023-03-11T16:00:55.959Z,8.80
2023-03-11T16:03:24.090Z,8.60
2023-03-11T16:05:52.093Z,8.60
2023-03-11T16:08:18.738Z,8.70
2023-03-11T16:10:45.488Z,8.40
2023-03-11T16:13:13.903Z,8.50
2023-03-11T16:15:42.266Z,8.40
2023-03-11T16:18:09.952Z,8.30
2023-03-11T16:20:43.953Z,8.10
2023-03-11T16:23:41.641Z,8.10
2023-03-11T16:26:17.310Z,8.10
2023-03-11T16:28:44.040Z,8.10
2023-03-11T16:31:10.835Z,8.10
2023-03-11T16:33:37.532Z,7.80
2023-03-11T16:36:04.702Z,7.70
2023-03-11T16:38:31.810Z,7.30
2023-03-11T16:41:01.781Z,7.10
2023-03-11T16:43:29.886Z,6.60
2023-03-11T16:45:56.558Z,6.10
2023-03-11T16:48:23.949Z,5.50
2023-03-11T16:50:50.896Z,5.20
2023-03-11T16:53:18.010Z,5.00
2023-03-11T16:55:46.123Z,4.80
2023-03-11T16:58:13.848Z,4.80
2023-03-11T17:01:06.790Z,4.70
2023-03-11T17:03:41.128Z,4.70
2023-03-11T17:06:09.324Z,4.60
2023-03-11T17:08:36.032Z,4.50
2023-03-11T17:11:02.722Z,4.40
2023-03-11T17:13:29.351Z,4.40
2023-03-11T17:16:02.585Z,4.30
2023-03-11T17:18:29.536Z,4.30
2023-03-11T17:20:56.249Z,4.20
2023-03-11T17:23:23.261Z,4.10
2023-03-11T17:25:50.687Z,4.20
2023-03-11T17:28:17.307Z,4.10
2023-03-11T17:30:44.665Z,4.10
2023-03-11T17:33:11.772Z,4.10
2023-03-11T17:35:38.822Z,4.00
2023-03-11T17:38:05.584Z,4.00
2023-03-11T17:40:32.851Z,3.90
2023-03-11T17:42:59.694Z,3.80
2023-03-11T17:45:26.439Z,3.70
2023-03-11T17:47:53.070Z,3.60
2023-03-11T17:50:19.977Z,3.50
2023-03-11T17:52:47.290Z,3.40
2023-03-11T17:55:14.147Z,3.30
2023-03-11T17:57:45.407Z,3.30
2023-03-11T18:00:14.657Z,3.30
2023-03-11T18:02:41.680Z,3.10
2023-03-11T18:05:09.503Z,2.90
2023-03-11T18:07:41.046Z,2.70
2023-03-11T18:10:09.592Z,2.50
2023-03-11T18:12:37.033Z,2.50
2023-03-11T18:15:07.238Z,2.40
2023-03-11T18:17:35.219Z,2.40
2023-03-11T18:20:02.295Z,2.40
2023-03-11T18:22:29.208Z,2.30
2023-03-11T18:24:55.993Z,2.20
2023-03-11T18:27:24.516Z,2.20
2023-03-11T18:29:51.748Z,2.20
2023-03-11T18:32:20.671Z,2.30
2023-03-11T18:34:51.139Z,2.30
2023-03-11T18:37:17.950Z,2.30
2023-03-11T18:39:44.634Z,2.40
2023-03-11T18:42:11.627Z,2.40
2023-03-11T18:44:39.193Z,2.30
2023-03-11T18:47:06.119Z,2.40
2023-03-11T18:49:32.762Z,2.40
2023-03-11T18:51:59.844Z,2.40
2023-03-11T18:54:28.019Z,2.50
2023-03-11T18:56:54.827Z,2.40
2023-03-11T18:59:22.208Z,2.30
2023-03-11T19:01:51.775Z,2.30
2023-03-11T19:04:18.621Z,2.40
2023-03-11T19:06:45.466Z,2.30
2023-03-11T19:09:12.239Z,2.30
2023-03-11T19:11:38.961Z,2.30
2023-03-11T19:14:05.634Z,2.30
2023-03-11T19:16:32.446Z,2.30
2023-03-11T19:18:59.186Z,2.40
2023-03-11T19:21:25.995Z,2.40
2023-03-11T19:23:55.098Z,2.40
2023-03-11T19:26:30.720Z,2.30
2023-03-11T19:29:04.510Z,2.30
2023-03-11T19:31:31.249Z,2.30
2023-03-11T19:33:58.992Z,2.30
2023-03-11T19:36:25.980Z,2.10
2023-03-11T19:38:52.676Z,2.00
2023-03-11T19:41:20.302Z,1.80
2023-03-11T19:43:48.105Z,1.60
2023-03-11T19:46:17.602Z,1.50
2023-03-11T19:48:44.440Z,1.40
2023-03-11T19:51:14.548Z,1.20
2023-03-11T19:53:41.739Z,1.10
2023-03-11T19:56:09.473Z,1.00
2023-03-11T19:58:36.584Z,0.90
2023-03-11T20:01:03.881Z,0.80
2023-03-11T20:03:30.616Z,0.70
2023-03-11T20:06:04.563Z,0.70
2023-03-11T20:08:36.309Z,0.60
2023-03-11T20:11:04.669Z,0.60
2023-03-11T20:13:31.374Z,0.40
2023-03-11T20:16:05.064Z,0.40
2023-03-11T20:18:32.142Z,0.40
2023-03-11T20:20:58.924Z,0.40
2023-03-11T20:23:25.620Z,0.40
2023-03-11T20:25:52.431Z,0.50
2023-03-11T20:28:19.365Z,0.30
2023-03-11T20:30:47.456Z,0.30
2023-03-11T20:33:14.355Z,0.30
2023-03-11T20:35:41.743Z,0.20
2023-03-11T20:38:10.240Z,0.10
2023-03-11T20:40:36.960Z,0.10
2023-03-11T20:43:03.808Z,0.10
2023-03-11T20:45:30.609Z,0.00
2023-03-11T20:47:57.315Z,0.10
2023-03-11T20:50:24.097Z,0.10
2023-03-11T20:52:51.371Z,0.10
2023-03-11T20:55:18.421Z,0.00
2023-03-11T20:57:45.182Z,0.00
2023-03-11T21:00:13.796Z,-0.10
2023-03-11T21:02:42.122Z,-0.10
2023-03-11T21:05:10.137Z,-0.10
2023-03-11T21:07:37.113Z,-0.20
2023-03-11T21:10:07.198Z,-0.20
2023-03-11T21:12:33.946Z,-0.20
2023-03-11T21:15:00.739Z,-0.20
2023-03-11T21:17:27.443Z,-0.20
2023-03-11T21:19:54.196Z,-0.20
2023-03-11T21:22:21.036Z,-0.30
2023-03-11T21:24:52.940Z,-0.30
2023-03-11T21:27:25.867Z,-0.30
2023-03-11T21:29:53.785Z,-0.30
2023-03-11T21:32:21.149Z,-0.40
2023-03-11T21:34:48.005Z,-0.40
2023-03-11T21:37:14.653Z,-0.40
2023-03-11T21:39:41.870Z,-0.40
2023-03-11T21:42:08.515Z,-0.50
2023-03-11T21:44:35.234Z,-0.60
2023-03-11T21:47:02.066Z,-0.60
2023-03-11T21:49:28.965Z,-0.60
2023-03-11T21:51:55.703Z,-0.70
2023-03-11T21:54:22.405Z,-0.70
2023-03-11T21:56:49.248Z,-0.70
2023-03-11T21:59:16.073Z,-0.70
2023-03-11T22:01:43.132Z,-0.80
2023-03-11T22:04:09.936Z,-0.90
2023-03-11T22:06:36.810Z,-0.90
2023-03-11T22:09:04.403Z,-0.90
2023-03-11T22:11:31.589Z,-1.00
2023-03-11T22:14:00.612Z,-0.90
2023-03-11T22:16:27.629Z,-0.90
2023-03-11T22:18:54.588Z,-0.90
2023-03-11T22:21:21.422Z,-1.00
2023-03-11T22:23:48.515Z,-1.00
2023-03-11T22:26:15.895Z,-1.00
2023-03-11T22:28:42.711Z,-1.00
2023-03-11T22:31:12.460Z,-1.00
2023-03-11T22:33:39.102Z,-1.00
2023-03-11T22:36:07.687Z,-1.00
2023-03-11T22:38:34.628Z,-1.00
2023-03-11T22:41:04.817Z,-1.00
2023-03-11T22:43:31.605Z,-1.00
2023-03-11T22:45:59.290Z,-1.00
2023-03-11T22:48:28.954Z,-1.00
2023-03-11T22:50:55.751Z,-0.90
2023-03-11T22:53:24.745Z,-1.00
2023-03-11T22:55:52.353Z,-1.10
2023-03-11T22:58:19.146Z,-1.10
2023-03-11T23:00:45.910Z,-1.20
2023-03-11T23:03:13.626Z,-1.20
2023-03-11T23:05:43.230Z,-1.20
2023-03-11T23:08:11.947Z,-1.30
2023-03-11T23:10:43.556Z,-1.20
2023-03-11T23:13:11.386Z,-1.20
2023-03-11T23:15:40.924Z,-1.20
2023-03-11T23:18:08.077Z,-1.30
2023-03-11T23:20:37.026Z,-1.30
2023-03-11T23:23:04.411Z,-1.30
2023-03-11T23:25:32.171Z,-1.40
2023-03-11T23:28:00.494Z,-1.40
2023-03-11T23:30:27.206Z,-1.40
2023-03-11T23:32:54.235Z,-1.50
2023-03-11T23:35:21.059Z,-1.50
2023-03-11T23:37:49.242Z,-1.60
2023-03-11T23:40:16.833Z,-1.70
2023-03-11T23:42:43.565Z,-1.70
2023-03-11T23:45:10.781Z,-1.70
2023-03-11T23:47:37.477Z,-1.70
2023-03-11T23:50:04.916Z,-1.70
2023-03-11T23:52:31.664Z,-1.70
2023-03-11T23:54:58.397Z,-1.70
2023-03-11T23:57:25.051Z,-1.80
2023-03-11T23:59:51.810Z,-1.80
